Sebastiao Paulo — CUKX3 — position and weather

sailwx.info

Track history (hours):
 
Tides and Currents Weather Stations Pressure Air Temp Water Temp Dewpoint Dewpoint Depression Visibility Wind Speed Wind Dir Waves Ship Positions

Sebastiao Paulo

Last reported at 2018-Jul-17 14:44 UTC. Time now 2018-Jul-17 17:10 UTC.
Position N 38°26' W 009°07'.

Length 23 m.

Type: Fishing. MMSI: 263500177.

Date/timePositionNaut miles runAvg speedWind from/ knotsBaromVisibWave heightAir tempDewpointWater temp
2018-Jul-17 14:44N 38°26' W 009°07'0 0.7
2018-Jul-17 14:30N 38°26' W 009°07'0 0.0
2018-Jul-17 13:59N 38°26' W 009°07'0 0.0
2018-Jul-17 13:31N 38°26' W 009°07'0 0.0
2018-Jul-17 12:59N 38°26' W 009°07'0 0.0
2018-Jul-17 12:29N 38°26' W 009°07'0 0.0
2018-Jul-17 12:00N 38°26' W 009°07'0 0.0
2018-Jul-17 11:30N 38°26' W 009°07'2 5.0
2018-Jul-17 11:01N 38°25' W 009°09'4 7.1
2018-Jul-17 10:31N 38°26' W 009°14'5 9.2
2018-Jul-17 10:00N 38°29' W 009°17'5 9.3
2018-Jul-17 09:30N 38°33' W 009°21'5 9.2
2018-Jul-17 09:00N 38°37' W 009°24'4 8.9
2018-Jul-17 08:30N 38°40' W 009°28'5 9.0
2018-Jul-17 08:00N 38°44' W 009°31'5 9.3
2018-Jul-17 07:30N 38°49' W 009°30'4 8.8
2018-Jul-17 07:00N 38°53' W 009°27'0 0.8
2018-Jul-17 06:30N 38°53' W 009°27'0 0.7
2018-Jul-17 06:00N 38°54' W 009°27'0 0.5
2018-Jul-17 05:30N 38°54' W 009°27'0 0.1
2018-Jul-17 05:01N 38°54' W 009°27'0 0.1
2018-Jul-17 04:30N 38°54' W 009°27'1 1.4
2018-Jul-17 04:00N 38°54' W 009°28'0 1.0
2018-Jul-17 03:30N 38°54' W 009°28'0 0.3
2018-Jul-17 03:00N 38°55' W 009°28'2 4.4
2018-Jul-17 02:30N 38°53' W 009°27'4 7.8
2018-Jul-17 02:00N 38°49' W 009°30'4 7.4
2018-Jul-17 01:30N 38°46' W 009°32'4 7.6
2018-Jul-17 00:59N 38°42' W 009°30'4 7.9
2018-Jul-17 00:30N 38°39' W 009°27'8 8.1
2018-Jul-16 23:29N 38°34' W 009°19'4 7.6
2018-Jul-16 23:01N 38°32' W 009°15'3 6.9
2018-Jul-16 22:30N 38°29' W 009°14'4 8.3
2018-Jul-16 22:00N 38°25' W 009°13'4 8.5
2018-Jul-16 21:30N 38°25' W 009°08'1 0.3
2018-Jul-16 15:57N 38°26' W 009°07'0 0.0
2018-Jul-16 15:30N 38°26' W 009°07'0 0.0
2018-Jul-16 13:32N 38°26' W 009°07'0 0.0
2018-Jul-16 13:30N 38°26' W 009°07'0 0.0
2018-Jul-16 12:58N 38°26' W 009°07'0 0.0
2018-Jul-16 12:30N 38°26' W 009°07'0 0.1
2018-Jul-16 12:00N 38°26' W 009°07'3 5.9
2018-Jul-16 11:30N 38°25' W 009°10'4 7.1
2018-Jul-16 11:00N 38°26' W 009°14'5 9.2
2018-Jul-16 10:30N 38°30' W 009°18'5 9.3
2018-Jul-16 09:57N 38°34' W 009°22'4 9.1
2018-Jul-16 09:31N 38°37' W 009°25'5 9.0
2018-Jul-16 09:00N 38°41' W 009°28'5 8.8
2018-Jul-16 08:29N 38°45' W 009°31'4 9.5
2018-Jul-16 08:00N 38°49' W 009°30'4 8.9
2018-Jul-16 07:31N 38°53' W 009°27'0 0.1
2018-Jul-16 07:01N 38°53' W 009°27'0 0.0
2018-Jul-16 06:30N 38°53' W 009°27'0 0.2
2018-Jul-16 06:00N 38°53' W 009°27'0 0.1
2018-Jul-16 05:29N 38°53' W 009°27'0 0.1
2018-Jul-16 05:00N 38°53' W 009°27'0 0.4
2018-Jul-16 04:30N 38°53' W 009°27'1 1.1
2018-Jul-16 04:00N 38°54' W 009°27'2 3.9
2018-Jul-16 03:30N 38°56' W 009°27'0 0.6
2018-Jul-16 02:59N 38°56' W 009°28'1 1.5
2018-Jul-16 02:30N 38°56' W 009°27'3 6.4
2018-Jul-16 02:00N 38°53' W 009°27'4 8.9
2018-Jul-16 01:30N 38°49' W 009°30'4 7.7
2018-Jul-16 00:59N 38°45' W 009°29'3 7.1
2018-Jul-16 00:31N 38°42' W 009°28'4 7.5
2018-Jul-15 23:58N 38°39' W 009°25'4 8.9
2018-Jul-15 23:30N 38°35' W 009°22'4 7.1
2018-Jul-15 23:00N 38°34' W 009°17'2 3.8
2018-Jul-15 22:29N 38°32' W 009°17'4 8.6
2018-Jul-15 22:00N 38°29' W 009°15'4 8.5
2018-Jul-15 21:30N 38°25' W 009°13'5 8.5
2018-Jul-15 20:58N 38°26' W 009°08'1 2.1
2018-Jul-15 20:27N 38°26' W 009°07'  
2018-Jul-13 12:59N 38°26' W 009°07'0 0.4
2018-Jul-13 12:30N 38°26' W 009°07'0 0.0
2018-Jul-13 12:00N 38°26' W 009°07'0 0.0
2018-Jul-13 11:28N 38°26' W 009°07'0 0.6
2018-Jul-13 10:58N 38°26' W 009°07'5 8.7
2018-Jul-13 10:26N 38°25' W 009°12'4 8.8
2018-Jul-13 09:58N 38°28' W 009°15'4 9.3
2018-Jul-13 09:30N 38°31' W 009°19'5 9.3
2018-Jul-13 09:00N 38°35' W 009°23'4 9.0
2018-Jul-13 08:30N 38°39' W 009°26'5 9.0
2018-Jul-13 07:56N 38°43' W 009°30'4 9.3
2018-Jul-13 07:30N 38°46' W 009°31'5 9.5
2018-Jul-13 07:00N 38°51' W 009°29'3 5.9
2018-Jul-13 06:30N 38°54' W 009°27'0 0.4
2018-Jul-13 06:00N 38°54' W 009°27'0 0.2
2018-Jul-13 05:30N 38°54' W 009°27'0 0.3
2018-Jul-13 05:00N 38°54' W 009°27'1 1.5
2018-Jul-13 04:30N 38°53' W 009°27'0 0.2
2018-Jul-13 04:00N 38°53' W 009°27'2 4.7
2018-Jul-13 03:30N 38°56' W 009°27'0 0.3
2018-Jul-13 03:00N 38°56' W 009°27'0 0.2
2018-Jul-13 02:30N 38°56' W 009°27'2 4.0
2018-Jul-13 02:00N 38°57' W 009°26'3 5.6
2018-Jul-13 01:30N 38°55' W 009°26'4 8.4
2018-Jul-13 01:00N 38°51' W 009°28'4 8.5
2018-Jul-13 00:30N 38°47' W 009°31'3 6.0
2018-Jul-13 00:00N 38°44' W 009°30'4 6.9
2018-Jul-12 23:26N 38°41' W 009°27'3 7.9
2018-Jul-12 23:00N 38°40' W 009°22'4 8.4
2018-Jul-12 22:30N 38°36' W 009°23'4 7.8
2018-Jul-12 21:58N 38°34' W 009°18'4 7.9
2018-Jul-12 21:28N 38°31' W 009°16'4 8.3
2018-Jul-12 21:00N 38°27' W 009°14'3 7.0
2018-Jul-12 20:30N 38°25' W 009°11'4 8.4
2018-Jul-12 20:00N 38°26' W 009°07'0 0.0
2018-Jul-12 09:28N 38°26' W 009°07'0 0.2
2018-Jul-12 09:00N 38°26' W 009°07'2 3.7
2018-Jul-12 08:30N 38°26' W 009°04'5 9.2
2018-Jul-12 08:00N 38°25' W 008°59'5 8.3
2018-Jul-12 07:21N 38°22' W 008°53'0 1.1
2018-Jul-12 07:00N 38°22' W 008°53'3 6.0
2018-Jul-12 06:27N 38°25' W 008°56'1 2.3
2018-Jul-12 05:53N 38°24' W 008°54'6 5.3
2018-Jul-12 04:43N 38°19' W 008°50'5 3.0
2018-Jul-12 02:55N 38°24' W 008°51'3 7.5
2018-Jul-12 02:30N 38°26' W 008°54'4 8.7
2018-Jul-12 02:00N 38°27' W 008°60'4 8.5
2018-Jul-12 01:30N 38°26' W 009°05'6 8.4
2018-Jul-12 00:50N 38°24' W 009°12'3 7.8
2018-Jul-12 00:28N 38°26' W 009°15'4 8.8
2018-Jul-11 23:57N 38°31' W 009°17'4 8.3
2018-Jul-11 23:30N 38°34' W 009°19'1 2.4
2018-Jul-11 22:58N 38°34' W 009°21'0 0.2
2018-Jul-11 22:30N 38°35' W 009°21'0 0.1
2018-Jul-11 22:00N 38°34' W 009°21'0 0.2
2018-Jul-11 21:30N 38°34' W 009°21'1 2.9
2018-Jul-11 21:00N 38°34' W 009°19'0 0.8
2018-Jul-11 20:22N 38°34' W 009°18'3 8.3
2018-Jul-11 19:59N 38°31' W 009°17'4 8.1
2018-Jul-11 19:27N 38°27' W 009°15'3 7.3
2018-Jul-11 19:00N 38°25' W 009°12'4 8.8
2018-Jul-11 18:30N 38°26' W 009°07'0 1.0
2018-Jul-11 18:00N 38°26' W 009°07'0 0.0
2018-Jul-11 13:52N 38°26' W 009°07'0 0.1
2018-Jul-11 10:47N 38°26' W 009°07'0 0.3
2018-Jul-11 10:29N 38°26' W 009°07'0 0.0
2018-Jul-11 09:59N 38°26' W 009°07'0 0.0
2018-Jul-11 09:30N 38°26' W 009°07'3 6.2
2018-Jul-11 09:00N 38°25' W 009°10'3 6.0
2018-Jul-11 08:28N 38°27' W 009°13'4 8.9
2018-Jul-11 07:59N 38°31' W 009°14'3 7.0
2018-Jul-11 07:30N 38°35' W 009°14'0 0.3
2018-Jul-11 07:00N 38°35' W 009°14'0 0.4
2018-Jul-11 06:30N 38°35' W 009°14'0 0.1
2018-Jul-11 05:59N 38°35' W 009°14'0 0.2
2018-Jul-11 05:30N 38°35' W 009°14'1 1.0
2018-Jul-11 04:58N 38°34' W 009°14'1 2.4
2018-Jul-11 04:28N 38°35' W 009°15'4 7.9
2018-Jul-11 04:00N 38°36' W 009°20'2 3.3
2018-Jul-11 03:29N 38°35' W 009°19'4 8.4
2018-Jul-11 03:00N 38°32' W 009°15'1 1.8
2018-Jul-11 02:30N 38°32' W 009°14'0 0.3
2018-Jul-11 01:59N 38°32' W 009°14'0 0.1
2018-Jul-11 01:29N 38°32' W 009°14'0 0.2
2018-Jul-11 01:00N 38°32' W 009°14'2 3.4
2018-Jul-11 00:30N 38°30' W 009°14'5 8.6
2018-Jul-10 23:58N 38°26' W 009°14'4 7.1
2018-Jul-10 23:21N 38°25' W 009°08'2 0.3
2018-Jul-10 18:00N 38°26' W 009°07'0 0.3
2018-Jul-10 17:30N 38°26' W 009°07'0 0.0
2018-Jul-10 17:00N 38°26' W 009°07'0 0.0
2018-Jul-10 16:30N 38°26' W 009°07'0 0.0
2018-Jul-10 16:00N 38°26' W 009°07'0 0.0
2018-Jul-10 15:30N 38°26' W 009°07'0 0.0
2018-Jul-10 14:58N 38°26' W 009°07'0 0.6
2018-Jul-10 14:30N 38°26' W 009°06'4 8.8
2018-Jul-10 14:00N 38°24' W 009°12'4 8.0
2018-Jul-10 13:30N 38°27' W 009°15'5 9.3
2018-Jul-10 13:00N 38°32' W 009°17'3 5.0
2018-Jul-10 12:28N 38°35' W 009°18'0 0.6
2018-Jul-10 12:00N 38°35' W 009°18'0 0.6
2018-Jul-10 11:29N 38°35' W 009°18'0 0.6
2018-Jul-10 11:00N 38°35' W 009°19'0 0.6
2018-Jul-10 10:29N 38°35' W 009°19'0 0.3
2018-Jul-10 09:59N 38°35' W 009°19'0 0.3
2018-Jul-10 09:28N 38°35' W 009°19'0 0.2
2018-Jul-10 09:00N 38°34' W 009°19'1 3.0
2018-Jul-10 08:30N 38°35' W 009°21'4 8.5
2018-Jul-10 08:00N 38°39' W 009°24'4 8.3
2018-Jul-10 07:31N 38°41' W 009°28'4 8.4
2018-Jul-10 07:00N 38°45' W 009°31'1 1.9
2018-Jul-10 06:26N 38°44' W 009°31'3 5.9
2018-Jul-10 06:01N 38°46' W 009°31'4 7.9
2018-Jul-10 05:30N 38°50' W 009°29'4 7.6
2018-Jul-10 05:01N 38°54' W 009°27'1 2.0
2018-Jul-10 04:30N 38°54' W 009°27'1 2.1
2018-Jul-10 04:00N 38°55' W 009°27'2 4.5
2018-Jul-10 03:30N 38°53' W 009°27'4 8.2
2018-Jul-10 03:01N 38°49' W 009°29'5 6.2
2018-Jul-10 02:13N 38°45' W 009°29'2 7.2
2018-Jul-10 02:00N 38°43' W 009°30'3 7.2
2018-Jul-10 01:30N 38°41' W 009°26'4 8.2
2018-Jul-10 01:01N 38°38' W 009°23'4 8.2
2018-Jul-10 00:30N 38°35' W 009°19'1 1.5
2018-Jul-10 00:00N 38°34' W 009°19'0 0.6
2018-Jul-09 23:30N 38°34' W 009°19'0 0.0
2018-Jul-09 23:00N 38°34' W 009°19'0 0.1
2018-Jul-09 22:30N 38°34' W 009°19'2 4.2
2018-Jul-09 22:00N 38°35' W 009°21'2 4.7
2018-Jul-09 21:30N 38°34' W 009°18'2 4.3
2018-Jul-09 21:00N 38°34' W 009°21'3 5.9
2018-Jul-09 20:28N 38°34' W 009°17'3 6.6
2018-Jul-09 20:00N 38°32' W 009°14'3 5.0
2018-Jul-09 19:27N 38°29' W 009°13'4 7.9
2018-Jul-09 19:00N 38°26' W 009°13'3 6.2
2018-Jul-09 18:28N 38°25' W 009°09'2 4.8
2018-Jul-09 18:00N 38°26' W 009°07'0 0.0
2018-Jul-09 12:16N 38°26' W 009°07'1 4.7
2018-Jul-09 11:59N 38°26' W 009°08'4 8.4
2018-Jul-09 11:29N 38°25' W 009°13'5 8.9
2018-Jul-09 10:57N 38°29' W 009°16'4 8.8
2018-Jul-09 10:30N 38°32' W 009°18'4 8.7
2018-Jul-09 10:00N 38°36' W 009°22'4 8.6
2018-Jul-09 09:30N 38°39' W 009°26'5 8.6
2018-Jul-09 08:59N 38°42' W 009°30'2 4.5
2018-Jul-09 08:30N 38°44' W 009°31'0 0.1
2018-Jul-09 08:00N 38°44' W 009°31'0 0.2
2018-Jul-09 07:31N 38°44' W 009°31'0 0.1
2018-Jul-09 07:00N 38°44' W 009°31'4 8.2
2018-Jul-09 06:31N 38°48' W 009°31'4 8.1
2018-Jul-09 06:00N 38°52' W 009°28'3 5.5
2018-Jul-09 05:30N 38°54' W 009°27'0 1.0
2018-Jul-09 05:01N 38°54' W 009°27'1 1.7
2018-Jul-09 04:30N 38°55' W 009°27'1 2.2
2018-Jul-09 04:01N 38°54' W 009°27'1 2.3
2018-Jul-09 03:31N 38°54' W 009°28'0 0.8
2018-Jul-09 03:00N 38°54' W 009°28'1 1.4
2018-Jul-09 02:30N 38°55' W 009°27'3 5.2
2018-Jul-09 02:01N 38°52' W 009°28'4 7.9
2018-Jul-09 01:30N 38°49' W 009°30'3 6.4
2018-Jul-09 00:58N 38°45' W 009°29'3 6.7
2018-Jul-09 00:29N 38°42' W 009°29'4 7.7
2018-Jul-09 00:00N 38°40' W 009°25'4 8.3
2018-Jul-08 23:30N 38°36' W 009°23'4 7.4
2018-Jul-08 22:59N 38°34' W 009°18'4 8.6
2018-Jul-08 22:31N 38°32' W 009°14'4 8.3
2018-Jul-08 22:00N 38°28' W 009°14'4 7.1
2018-Jul-08 21:31N 38°24' W 009°12'4 8.5
2018-Jul-08 21:00N 38°26' W 009°07'1 1.3
2018-Jul-08 20:31N 38°26' W 009°07'  
Track history (hours):
 
Tides and Currents Weather Stations Pressure Air Temp Water Temp Dewpoint Dewpoint Depression Visibility Wind Speed Wind Dir Waves Ship Positions

Sebastiao Paulo

Last reported at 2018-Jul-17 14:44 UTC. Time now 2018-Jul-17 17:10 UTC.
Position N 38°26' W 009°07'.

Length 23 m.

Type: Fishing. MMSI: 263500177.

Date/timePositionNaut miles runAvg speedWind from/ knotsBaromVisibWave heightAir tempDewpointWater temp
2018-Jul-17 14:44N 38°26' W 009°07'0 0.7
2018-Jul-17 14:30N 38°26' W 009°07'0 0.0
2018-Jul-17 13:59N 38°26' W 009°07'0 0.0
2018-Jul-17 13:31N 38°26' W 009°07'0 0.0
2018-Jul-17 12:59N 38°26' W 009°07'0 0.0
2018-Jul-17 12:29N 38°26' W 009°07'0 0.0
2018-Jul-17 12:00N 38°26' W 009°07'0 0.0
2018-Jul-17 11:30N 38°26' W 009°07'2 5.0
2018-Jul-17 11:01N 38°25' W 009°09'4 7.1
2018-Jul-17 10:31N 38°26' W 009°14'5 9.2
2018-Jul-17 10:00N 38°29' W 009°17'5 9.3
2018-Jul-17 09:30N 38°33' W 009°21'5 9.2
2018-Jul-17 09:00N 38°37' W 009°24'4 8.9
2018-Jul-17 08:30N 38°40' W 009°28'5 9.0
2018-Jul-17 08:00N 38°44' W 009°31'5 9.3
2018-Jul-17 07:30N 38°49' W 009°30'4 8.8
2018-Jul-17 07:00N 38°53' W 009°27'0 0.8
2018-Jul-17 06:30N 38°53' W 009°27'0 0.7
2018-Jul-17 06:00N 38°54' W 009°27'0 0.5
2018-Jul-17 05:30N 38°54' W 009°27'0 0.1
2018-Jul-17 05:01N 38°54' W 009°27'0 0.1
2018-Jul-17 04:30N 38°54' W 009°27'1 1.4
2018-Jul-17 04:00N 38°54' W 009°28'0 1.0
2018-Jul-17 03:30N 38°54' W 009°28'0 0.3
2018-Jul-17 03:00N 38°55' W 009°28'2 4.4
2018-Jul-17 02:30N 38°53' W 009°27'4 7.8
2018-Jul-17 02:00N 38°49' W 009°30'4 7.4
2018-Jul-17 01:30N 38°46' W 009°32'4 7.6
2018-Jul-17 00:59N 38°42' W 009°30'4 7.9
2018-Jul-17 00:30N 38°39' W 009°27'8 8.1
2018-Jul-16 23:29N 38°34' W 009°19'4 7.6
2018-Jul-16 23:01N 38°32' W 009°15'3 6.9
2018-Jul-16 22:30N 38°29' W 009°14'4 8.3
2018-Jul-16 22:00N 38°25' W 009°13'4 8.5
2018-Jul-16 21:30N 38°25' W 009°08'1 0.3
2018-Jul-16 15:57N 38°26' W 009°07'0 0.0
2018-Jul-16 15:30N 38°26' W 009°07'0 0.0
2018-Jul-16 13:32N 38°26' W 009°07'0 0.0
2018-Jul-16 13:30N 38°26' W 009°07'0 0.0
2018-Jul-16 12:58N 38°26' W 009°07'0 0.0
2018-Jul-16 12:30N 38°26' W 009°07'0 0.1
2018-Jul-16 12:00N 38°26' W 009°07'3 5.9
2018-Jul-16 11:30N 38°25' W 009°10'4 7.1
2018-Jul-16 11:00N 38°26' W 009°14'5 9.2
2018-Jul-16 10:30N 38°30' W 009°18'5 9.3
2018-Jul-16 09:57N 38°34' W 009°22'4 9.1
2018-Jul-16 09:31N 38°37' W 009°25'5 9.0
2018-Jul-16 09:00N 38°41' W 009°28'5 8.8
2018-Jul-16 08:29N 38°45' W 009°31'4 9.5
2018-Jul-16 08:00N 38°49' W 009°30'4 8.9
2018-Jul-16 07:31N 38°53' W 009°27'0 0.1
2018-Jul-16 07:01N 38°53' W 009°27'0 0.0
2018-Jul-16 06:30N 38°53' W 009°27'0 0.2
2018-Jul-16 06:00N 38°53' W 009°27'0 0.1
2018-Jul-16 05:29N 38°53' W 009°27'0 0.1
2018-Jul-16 05:00N 38°53' W 009°27'0 0.4
2018-Jul-16 04:30N 38°53' W 009°27'1 1.1
2018-Jul-16 04:00N 38°54' W 009°27'2 3.9
2018-Jul-16 03:30N 38°56' W 009°27'0 0.6
2018-Jul-16 02:59N 38°56' W 009°28'1 1.5
2018-Jul-16 02:30N 38°56' W 009°27'3 6.4
2018-Jul-16 02:00N 38°53' W 009°27'4 8.9
2018-Jul-16 01:30N 38°49' W 009°30'4 7.7
2018-Jul-16 00:59N 38°45' W 009°29'3 7.1
2018-Jul-16 00:31N 38°42' W 009°28'4 7.5
2018-Jul-15 23:58N 38°39' W 009°25'4 8.9
2018-Jul-15 23:30N 38°35' W 009°22'4 7.1
2018-Jul-15 23:00N 38°34' W 009°17'2 3.8
2018-Jul-15 22:29N 38°32' W 009°17'4 8.6
2018-Jul-15 22:00N 38°29' W 009°15'4 8.5
2018-Jul-15 21:30N 38°25' W 009°13'5 8.5
2018-Jul-15 20:58N 38°26' W 009°08'1 2.1
2018-Jul-15 20:27N 38°26' W 009°07'  
2018-Jul-13 12:59N 38°26' W 009°07'0 0.4
2018-Jul-13 12:30N 38°26' W 009°07'0 0.0
2018-Jul-13 12:00N 38°26' W 009°07'0 0.0
2018-Jul-13 11:28N 38°26' W 009°07'0 0.6
2018-Jul-13 10:58N 38°26' W 009°07'5 8.7
2018-Jul-13 10:26N 38°25' W 009°12'4 8.8
2018-Jul-13 09:58N 38°28' W 009°15'4 9.3
2018-Jul-13 09:30N 38°31' W 009°19'5 9.3
2018-Jul-13 09:00N 38°35' W 009°23'4 9.0
2018-Jul-13 08:30N 38°39' W 009°26'5 9.0
2018-Jul-13 07:56N 38°43' W 009°30'4 9.3
2018-Jul-13 07:30N 38°46' W 009°31'5 9.5
2018-Jul-13 07:00N 38°51' W 009°29'3 5.9
2018-Jul-13 06:30N 38°54' W 009°27'0 0.4
2018-Jul-13 06:00N 38°54' W 009°27'0 0.2
2018-Jul-13 05:30N 38°54' W 009°27'0 0.3
2018-Jul-13 05:00N 38°54' W 009°27'1 1.5
2018-Jul-13 04:30N 38°53' W 009°27'0 0.2
2018-Jul-13 04:00N 38°53' W 009°27'2 4.7
2018-Jul-13 03:30N 38°56' W 009°27'0 0.3
2018-Jul-13 03:00N 38°56' W 009°27'0 0.2
2018-Jul-13 02:30N 38°56' W 009°27'2 4.0
2018-Jul-13 02:00N 38°57' W 009°26'3 5.6
2018-Jul-13 01:30N 38°55' W 009°26'4 8.4
2018-Jul-13 01:00N 38°51' W 009°28'4 8.5
2018-Jul-13 00:30N 38°47' W 009°31'3 6.0
2018-Jul-13 00:00N 38°44' W 009°30'4 6.9
2018-Jul-12 23:26N 38°41' W 009°27'3 7.9
2018-Jul-12 23:00N 38°40' W 009°22'4 8.4
2018-Jul-12 22:30N 38°36' W 009°23'4 7.8
2018-Jul-12 21:58N 38°34' W 009°18'4 7.9
2018-Jul-12 21:28N 38°31' W 009°16'4 8.3
2018-Jul-12 21:00N 38°27' W 009°14'3 7.0
2018-Jul-12 20:30N 38°25' W 009°11'4 8.4
2018-Jul-12 20:00N 38°26' W 009°07'0 0.0
2018-Jul-12 09:28N 38°26' W 009°07'0 0.2
2018-Jul-12 09:00N 38°26' W 009°07'2 3.7
2018-Jul-12 08:30N 38°26' W 009°04'5 9.2
2018-Jul-12 08:00N 38°25' W 008°59'5 8.3
2018-Jul-12 07:21N 38°22' W 008°53'0 1.1
2018-Jul-12 07:00N 38°22' W 008°53'3 6.0
2018-Jul-12 06:27N 38°25' W 008°56'1 2.3
2018-Jul-12 05:53N 38°24' W 008°54'6 5.3
2018-Jul-12 04:43N 38°19' W 008°50'5 3.0
2018-Jul-12 02:55N 38°24' W 008°51'3 7.5
2018-Jul-12 02:30N 38°26' W 008°54'4 8.7
2018-Jul-12 02:00N 38°27' W 008°60'4 8.5
2018-Jul-12 01:30N 38°26' W 009°05'6 8.4
2018-Jul-12 00:50N 38°24' W 009°12'3 7.8
2018-Jul-12 00:28N 38°26' W 009°15'4 8.8
2018-Jul-11 23:57N 38°31' W 009°17'4 8.3
2018-Jul-11 23:30N 38°34' W 009°19'1 2.4
2018-Jul-11 22:58N 38°34' W 009°21'0 0.2
2018-Jul-11 22:30N 38°35' W 009°21'0 0.1
2018-Jul-11 22:00N 38°34' W 009°21'0 0.2
2018-Jul-11 21:30N 38°34' W 009°21'1 2.9
2018-Jul-11 21:00N 38°34' W 009°19'0 0.8
2018-Jul-11 20:22N 38°34' W 009°18'3 8.3
2018-Jul-11 19:59N 38°31' W 009°17'4 8.1
2018-Jul-11 19:27N 38°27' W 009°15'3 7.3
2018-Jul-11 19:00N 38°25' W 009°12'4 8.8
2018-Jul-11 18:30N 38°26' W 009°07'0 1.0
2018-Jul-11 18:00N 38°26' W 009°07'0 0.0
2018-Jul-11 13:52N 38°26' W 009°07'0 0.1
2018-Jul-11 10:47N 38°26' W 009°07'0 0.3
2018-Jul-11 10:29N 38°26' W 009°07'0 0.0
2018-Jul-11 09:59N 38°26' W 009°07'0 0.0
2018-Jul-11 09:30N 38°26' W 009°07'3 6.2
2018-Jul-11 09:00N 38°25' W 009°10'3 6.0
2018-Jul-11 08:28N 38°27' W 009°13'4 8.9
2018-Jul-11 07:59N 38°31' W 009°14'3 7.0
2018-Jul-11 07:30N 38°35' W 009°14'0 0.3
2018-Jul-11 07:00N 38°35' W 009°14'0 0.4
2018-Jul-11 06:30N 38°35' W 009°14'0 0.1
2018-Jul-11 05:59N 38°35' W 009°14'0 0.2
2018-Jul-11 05:30N 38°35' W 009°14'1 1.0
2018-Jul-11 04:58N 38°34' W 009°14'1 2.4
2018-Jul-11 04:28N 38°35' W 009°15'4 7.9
2018-Jul-11 04:00N 38°36' W 009°20'2 3.3
2018-Jul-11 03:29N 38°35' W 009°19'4 8.4
2018-Jul-11 03:00N 38°32' W 009°15'1 1.8
2018-Jul-11 02:30N 38°32' W 009°14'0 0.3
2018-Jul-11 01:59N 38°32' W 009°14'0 0.1
2018-Jul-11 01:29N 38°32' W 009°14'0 0.2
2018-Jul-11 01:00N 38°32' W 009°14'2 3.4
2018-Jul-11 00:30N 38°30' W 009°14'5 8.6
2018-Jul-10 23:58N 38°26' W 009°14'4 7.1
2018-Jul-10 23:21N 38°25' W 009°08'2 0.3
2018-Jul-10 18:00N 38°26' W 009°07'0 0.3
2018-Jul-10 17:30N 38°26' W 009°07'0 0.0
2018-Jul-10 17:00N 38°26' W 009°07'0 0.0
2018-Jul-10 16:30N 38°26' W 009°07'0 0.0
2018-Jul-10 16:00N 38°26' W 009°07'0 0.0
2018-Jul-10 15:30N 38°26' W 009°07'0 0.0
2018-Jul-10 14:58N 38°26' W 009°07'0 0.6
2018-Jul-10 14:30N 38°26' W 009°06'4 8.8
2018-Jul-10 14:00N 38°24' W 009°12'4 8.0
2018-Jul-10 13:30N 38°27' W 009°15'5 9.3
2018-Jul-10 13:00N 38°32' W 009°17'3 5.0
2018-Jul-10 12:28N 38°35' W 009°18'0 0.6
2018-Jul-10 12:00N 38°35' W 009°18'0 0.6
2018-Jul-10 11:29N 38°35' W 009°18'0 0.6
2018-Jul-10 11:00N 38°35' W 009°19'0 0.6
2018-Jul-10 10:29N 38°35' W 009°19'0 0.3
2018-Jul-10 09:59N 38°35' W 009°19'0 0.3
2018-Jul-10 09:28N 38°35' W 009°19'0 0.2
2018-Jul-10 09:00N 38°34' W 009°19'1 3.0
2018-Jul-10 08:30N 38°35' W 009°21'4 8.5
2018-Jul-10 08:00N 38°39' W 009°24'4 8.3
2018-Jul-10 07:31N 38°41' W 009°28'4 8.4
2018-Jul-10 07:00N 38°45' W 009°31'1 1.9
2018-Jul-10 06:26N 38°44' W 009°31'3 5.9
2018-Jul-10 06:01N 38°46' W 009°31'4 7.9
2018-Jul-10 05:30N 38°50' W 009°29'4 7.6
2018-Jul-10 05:01N 38°54' W 009°27'1 2.0
2018-Jul-10 04:30N 38°54' W 009°27'1 2.1
2018-Jul-10 04:00N 38°55' W 009°27'2 4.5
2018-Jul-10 03:30N 38°53' W 009°27'4 8.2
2018-Jul-10 03:01N 38°49' W 009°29'5 6.2
2018-Jul-10 02:13N 38°45' W 009°29'2 7.2
2018-Jul-10 02:00N 38°43' W 009°30'3 7.2
2018-Jul-10 01:30N 38°41' W 009°26'4 8.2
2018-Jul-10 01:01N 38°38' W 009°23'4 8.2
2018-Jul-10 00:30N 38°35' W 009°19'1 1.5
2018-Jul-10 00:00N 38°34' W 009°19'0 0.6
2018-Jul-09 23:30N 38°34' W 009°19'0 0.0
2018-Jul-09 23:00N 38°34' W 009°19'0 0.1
2018-Jul-09 22:30N 38°34' W 009°19'2 4.2
2018-Jul-09 22:00N 38°35' W 009°21'2 4.7
2018-Jul-09 21:30N 38°34' W 009°18'2 4.3
2018-Jul-09 21:00N 38°34' W 009°21'3 5.9
2018-Jul-09 20:28N 38°34' W 009°17'3 6.6
2018-Jul-09 20:00N 38°32' W 009°14'3 5.0
2018-Jul-09 19:27N 38°29' W 009°13'4 7.9
2018-Jul-09 19:00N 38°26' W 009°13'3 6.2
2018-Jul-09 18:28N 38°25' W 009°09'2 4.8
2018-Jul-09 18:00N 38°26' W 009°07'0 0.0
2018-Jul-09 12:16N 38°26' W 009°07'1 4.7
2018-Jul-09 11:59N 38°26' W 009°08'4 8.4
2018-Jul-09 11:29N 38°25' W 009°13'5 8.9
2018-Jul-09 10:57N 38°29' W 009°16'4 8.8
2018-Jul-09 10:30N 38°32' W 009°18'4 8.7
2018-Jul-09 10:00N 38°36' W 009°22'4 8.6
2018-Jul-09 09:30N 38°39' W 009°26'5 8.6
2018-Jul-09 08:59N 38°42' W 009°30'2 4.5
2018-Jul-09 08:30N 38°44' W 009°31'0 0.1
2018-Jul-09 08:00N 38°44' W 009°31'0 0.2
2018-Jul-09 07:31N 38°44' W 009°31'0 0.1
2018-Jul-09 07:00N 38°44' W 009°31'4 8.2
2018-Jul-09 06:31N 38°48' W 009°31'4 8.1
2018-Jul-09 06:00N 38°52' W 009°28'3 5.5
2018-Jul-09 05:30N 38°54' W 009°27'0 1.0
2018-Jul-09 05:01N 38°54' W 009°27'1 1.7
2018-Jul-09 04:30N 38°55' W 009°27'1 2.2
2018-Jul-09 04:01N 38°54' W 009°27'1 2.3
2018-Jul-09 03:31N 38°54' W 009°28'0 0.8
2018-Jul-09 03:00N 38°54' W 009°28'1 1.4
2018-Jul-09 02:30N 38°55' W 009°27'3 5.2
2018-Jul-09 02:01N 38°52' W 009°28'4 7.9
2018-Jul-09 01:30N 38°49' W 009°30'3 6.4
2018-Jul-09 00:58N 38°45' W 009°29'3 6.7
2018-Jul-09 00:29N 38°42' W 009°29'4 7.7
2018-Jul-09 00:00N 38°40' W 009°25'4 8.3
2018-Jul-08 23:30N 38°36' W 009°23'4 7.4
2018-Jul-08 22:59N 38°34' W 009°18'4 8.6
2018-Jul-08 22:31N 38°32' W 009°14'4 8.3
2018-Jul-08 22:00N 38°28' W 009°14'4 7.1
2018-Jul-08 21:31N 38°24' W 009°12'4 8.5
2018-Jul-08 21:00N 38°26' W 009°07'1 1.3
2018-Jul-08 20:31N 38°26' W 009°07'  

Dump ship's entire track history